Time;durP1;ratioP1;P1;durP2;ratioP2;P2;SDS_P1;SDS_P2;PMS_P1;PMS_P2;Temp;Humidity;BMP_temperature;BMP_pressure;BME280_temperature;BME280_humidity;BME280_pressure;Samples;Min_cycle;Max_cycle;Signal;HPM_P1;HPM_P2
2021/09/05 00:01:06;;;;;;;;;16.00;13.33;;;;;22.17;68.99;101308.03;5028004;28;46309;-90
2021/09/05 00:03:32;;;;;;;;;18.00;14.00;;;;;22.13;69.22;101301.00;5046765;28;45247;-93
2021/09/05 00:05:59;;;;;;;;;13.67;13.67;;;;;22.18;69.08;101310.72;5046799;28;45245;-92
2021/09/05 00:08:25;;;;;;;;;16.33;15.33;;;;;22.06;69.28;101290.44;5028087;28;45424;-92
2021/09/05 00:10:50;;;;;;;;;19.00;16.33;;;;;22.06;69.36;101292.25;5045097;28;45344;-93
2021/09/05 00:13:16;;;;;;;;;15.33;14.33;;;;;22.06;69.35;101287.75;5045459;28;45277;-91
2021/09/05 00:15:47;;;;;;;;;15.33;15.33;;;;;22.01;69.26;101278.97;5028446;28;45471;-91
2021/09/05 00:18:13;;;;;;;;;20.00;16.67;;;;;22.15;69.94;101313.44;5046931;28;45352;-90
2021/09/05 00:20:38;;;;;;;;;15.33;15.33;;;;;21.95;69.48;101284.44;5029733;28;47978;-92
2021/09/05 00:23:05;;;;;;;;;17.33;16.33;;;;;22.03;70.16;101305.69;5028823;28;45769;-92
2021/09/05 00:25:33;;;;;;;;;18.67;18.00;;;;;21.95;69.89;101297.84;5030036;28;45265;-90
2021/09/05 00:27:59;;;;;;;;;20.67;18.67;;;;;21.99;70.16;101312.91;5048368;28;45538;-90
2021/09/05 00:30:26;;;;;;;;;21.00;18.00;;;;;21.95;70.41;101306.75;5028329;28;47106;-90
2021/09/05 00:32:52;;;;;;;;;19.67;19.00;;;;;21.91;70.50;101298.81;5029735;28;45599;-92
2021/09/05 00:35:18;;;;;;;;;22.67;20.33;;;;;21.92;70.35;101295.19;5045342;28;45197;-93
2021/09/05 00:37:44;;;;;;;;;25.67;20.67;;;;;22.02;70.63;101320.84;5026457;28;45328;-95
2021/09/05 00:40:13;;;;;;;;;23.67;20.00;;;;;22.00;70.96;101320.00;5043268;28;46587;-93
2021/09/05 00:42:39;;;;;;;;;22.00;18.33;;;;;21.91;70.73;101312.19;5025699;28;45457;-93
2021/09/05 00:45:05;;;;;;;;;21.67;21.33;;;;;21.94;71.03;101325.50;5028828;28;45434;-92
2021/09/05 00:47:30;;;;;;;;;22.67;19.00;;;;;21.89;70.96;101312.22;5042589;28;45452;-92
2021/09/05 00:49:56;;;;;;;;;19.00;18.00;;;;;21.99;70.93;101323.63;5043392;28;45536;-92
2021/09/05 00:52:24;;;;;;;;;18.33;17.67;;;;;21.99;71.18;101320.94;5025209;28;45361;-95
2021/09/05 00:54:51;;;;;;;;;20.00;19.00;;;;;21.92;70.65;101309.47;5027742;28;45185;-94
2021/09/05 00:57:20;;;;;;;;;19.33;17.67;;;;;21.92;70.90;101305.91;5047973;28;44837;-91
2021/09/05 00:59:48;;;;;;;;;17.67;16.00;;;;;21.86;70.71;101293.56;5047217;28;46351;-92
2021/09/05 01:02:15;;;;;;;;;16.00;15.67;;;;;21.93;70.75;101308.56;5049703;28;45250;-90
2021/09/05 01:04:41;;;;;;;;;20.33;17.33;;;;;21.93;70.65;101318.41;5049273;28;45320;-90
2021/09/05 01:07:08;;;;;;;;;18.67;17.67;;;;;21.84;71.26;101300.72;5026703;28;45535;-91
2021/09/05 01:09:34;;;;;;;;;19.67;17.67;;;;;21.81;71.28;101292.72;5050572;28;45252;-91
2021/09/05 01:12:02;;;;;;;;;22.33;17.33;;;;;21.75;71.13;101283.91;5041055;28;45399;-90
2021/09/05 01:14:28;;;;;;;;;19.33;18.33;;;;;21.92;71.46;101311.25;5039345;28;44744;-92
2021/09/05 01:17:02;;;;;;;;;19.33;18.00;;;;;21.96;71.33;101318.31;5037694;28;44766;-92
2021/09/05 01:19:29;;;;;;;;;18.67;18.00;;;;;21.81;71.30;101285.56;5060163;28;45548;-90
2021/09/05 01:21:55;;;;;;;;;20.33;18.67;;;;;21.86;71.44;101305.16;5038434;28;44722;-91
2021/09/05 01:24:21;;;;;;;;;27.67;23.67;;;;;21.95;71.60;101317.47;5061769;28;44596;-91
2021/09/05 01:26:50;;;;;;;;;25.00;23.67;;;;;21.92;71.53;101314.81;5043470;28;44797;-91
2021/09/05 01:29:17;;;;;;;;;29.00;26.00;;;;;21.96;71.63;101332.59;5040538;28;47129;-92
2021/09/05 01:31:51;;;;;;;;;29.25;26.50;;;;;21.90;71.72;101326.47;5042494;28;45096;-93
2021/09/05 01:34:19;;;;;;;;;25.33;24.67;;;;;21.95;71.71;101340.66;5059332;28;45243;-91
2021/09/05 01:37:00;;;;;;;;;27.33;24.00;;;;;21.91;72.00;101330.94;5051110;28;45176;-91
2021/09/05 01:39:26;;;;;;;;;31.00;28.67;;;;;21.89;71.95;101328.28;5026944;28;45533;-90
2021/09/05 01:41:52;;;;;;;;;32.33;28.67;;;;;21.78;72.02;101309.75;5035287;28;45977;-91
2021/09/05 01:44:27;;;;;;;;;27.67;26.00;;;;;21.81;71.42;101317.69;5035402;28;44666;-92
2021/09/05 01:46:56;;;;;;;;;34.67;30.00;;;;;21.75;71.73;101309.78;5029854;22;45555;-90
2021/09/05 01:49:23;;;;;;;;;32.67;28.00;;;;;21.83;71.46;101328.34;5006158;28;46130;-90
2021/09/05 01:51:51;;;;;;;;;35.67;28.00;;;;;21.82;71.65;101321.25;4988511;28;45515;-92
2021/09/05 01:54:17;;;;;;;;;31.67;30.67;;;;;21.77;71.55;101317.78;5017219;23;45459;-90
2021/09/05 01:56:42;;;;;;;;;30.33;29.00;;;;;21.84;71.54;101332.84;5001681;28;45399;-91
2021/09/05 01:59:21;;;;;;;;;31.67;28.00;;;;;21.79;71.45;101326.66;5003043;28;45465;-90
2021/09/05 02:01:47;;;;;;;;;31.33;27.67;;;;;21.81;71.69;101339.09;5011155;28;45165;-90
2021/09/05 02:04:13;;;;;;;;;28.33;26.33;;;;;21.81;71.74;101331.06;4995215;28;45168;-91
2021/09/05 02:06:40;;;;;;;;;35.67;30.33;;;;;21.77;71.92;101326.69;5014279;28;45313;-90
2021/09/05 02:09:13;;;;;;;;;30.33;27.67;;;;;21.79;71.58;101332.00;5012677;28;46420;-90
2021/09/05 02:11:41;;;;;;;;;24.33;23.67;;;;;21.74;71.96;101322.28;5011663;28;45262;-91
2021/09/05 02:14:07;;;;;;;;;25.67;24.00;;;;;21.81;71.88;101333.75;5011189;28;45289;-93
2021/09/05 02:16:33;;;;;;;;;29.00;25.33;;;;;21.78;71.88;101341.84;5011390;28;45336;-92
2021/09/05 02:19:02;;;;;;;;;27.00;25.33;;;;;21.66;72.06;101318.03;5009919;28;47189;-92
2021/09/05 02:21:29;;;;;;;;;24.33;23.67;;;;;21.74;72.08;101332.13;5008661;28;45556;-91
2021/09/05 02:23:55;;;;;;;;;26.00;23.00;;;;;21.69;71.99;101320.63;5009959;28;45151;-94
2021/09/05 02:26:20;;;;;;;;;28.00;23.33;;;;;21.64;72.12;101313.56;5009498;28;45470;-92
2021/09/05 02:28:47;;;;;;;;;21.67;19.00;;;;;21.64;71.72;101316.25;5006305;28;47029;-92
2021/09/05 02:31:12;;;;;;;;;29.67;25.00;;;;;21.63;72.19;101314.50;5006529;28;45376;-93
2021/09/05 02:33:40;;;;;;;;;23.33;23.00;;;;;21.79;72.04;101340.91;5005561;28;45464;-95
2021/09/05 02:36:06;;;;;;;;;25.00;24.00;;;;;21.79;71.75;101343.59;5009666;28;45238;-92
2021/09/05 02:38:31;;;;;;;;;25.67;22.67;;;;;21.62;72.10;101312.72;5008434;28;47059;-95
2021/09/05 02:40:57;;;;;;;;;27.00;23.00;;;;;21.77;72.02;101342.75;5010198;28;45230;-94
2021/09/05 02:43:22;;;;;;;;;29.00;23.67;;;;;21.61;71.87;101319.00;5007585;28;45329;-94
2021/09/05 02:45:48;;;;;;;;;25.25;23.75;;;;;21.71;71.92;101335.72;5010920;28;45214;-92
2021/09/05 02:48:14;;;;;;;;;23.33;21.67;;;;;21.66;71.67;101326.03;5007689;28;45591;-92
2021/09/05 02:50:39;;;;;;;;;27.33;21.67;;;;;21.58;71.78;101312.78;5006609;28;45254;-92
2021/09/05 02:56:26;;;;;;;;;23.33;21.33;;;;;21.61;72.21;101327.03;4952127;28;45632;-91
2021/09/05 02:58:51;;;;;;;;;30.00;22.00;;;;;21.68;71.52;101337.59;4953919;28;45624;-90
2021/09/05 03:01:21;;;;;;;;;25.00;21.33;;;;;21.61;72.07;101328.81;4964864;28;45482;-90
2021/09/05 03:03:47;;;;;;;;;22.33;22.33;;;;;21.72;71.56;101347.31;4963897;28;44780;-90
2021/09/05 03:06:14;;;;;;;;;23.67;21.00;;;;;21.58;71.87;101319.03;4963475;28;44776;-91
2021/09/05 03:08:45;;;;;;;;;24.33;23.00;;;;;21.54;72.11;101309.31;4953652;28;45503;-91
2021/09/05 03:11:13;;;;;;;;;29.00;24.00;;;;;21.71;72.07;101345.53;4953611;28;45508;-92
2021/09/05 03:13:42;;;;;;;;;28.00;23.25;;;;;21.57;71.62;101321.75;4953480;28;45339;-91
2021/09/05 03:16:09;;;;;;;;;28.33;25.00;;;;;21.63;71.85;101332.31;4951623;28;45600;-92
2021/09/05 03:18:36;;;;;;;;;21.67;21.00;;;;;21.53;72.01;101312.91;4933751;28;47226;-93
2021/09/05 03:21:02;;;;;;;;;19.00;19.00;;;;;21.54;72.00;101320.00;4950433;28;45404;-92
2021/09/05 03:23:28;;;;;;;;;25.33;24.00;;;;;21.51;71.90;101315.59;4950540;28;45622;-90
2021/09/05 03:25:55;;;;;;;;;22.75;21.75;;;;;21.52;72.30;101324.50;4952313;28;44892;-93
2021/09/05 03:28:21;;;;;;;;;24.33;23.67;;;;;21.66;72.08;101348.31;4949589;28;47248;-94
2021/09/05 03:30:46;;;;;;;;;22.67;21.00;;;;;21.55;72.36;101326.25;4949027;28;45402;-93
2021/09/05 03:33:15;;;;;;;;;23.67;22.00;;;;;21.59;72.00;101334.19;4980186;28;45204;-92
2021/09/05 03:35:40;;;;;;;;;24.00;24.00;;;;;21.55;72.38;101319.13;5012819;28;44822;-90
2021/09/05 03:38:07;;;;;;;;;23.33;23.00;;;;;21.50;72.21;101311.16;5031016;28;46651;-93
2021/09/05 03:40:36;;;;;;;;;22.67;20.67;;;;;21.63;72.20;101330.53;5028942;28;45374;-91
2021/09/05 03:43:02;;;;;;;;;23.33;20.33;;;;;21.61;72.00;101329.69;5028623;28;44792;-91
2021/09/05 03:45:28;;;;;;;;;22.67;21.33;;;;;21.52;72.17;101316.47;5030856;28;45187;-94
2021/09/05 03:47:54;;;;;;;;;23.33;21.00;;;;;21.64;72.05;101332.28;5029975;28;45899;-91
2021/09/05 03:50:21;;;;;;;;;23.33;21.67;;;;;21.50;72.18;101311.16;5030828;28;45434;-91
2021/09/05 03:52:48;;;;;;;;;19.33;19.33;;;;;21.49;72.26;101303.19;5031379;28;45552;-91
2021/09/05 03:55:38;;;;;;;;;23.00;20.67;;;;;21.63;71.73;101327.88;5030912;28;45398;-91
2021/09/05 03:58:06;;;;;;;;;23.33;22.00;;;;;21.60;71.89;101333.25;5031856;28;45775;-92
2021/09/05 04:00:32;;;;;;;;;21.67;20.67;;;;;21.49;72.17;101313.88;5029659;28;45277;-93
2021/09/05 04:03:03;;;;;;;;;20.00;18.00;;;;;21.47;71.90;101310.34;5030193;28;45644;-91
2021/09/05 04:05:29;;;;;;;;;21.67;20.00;;;;;21.61;71.89;101335.03;5027610;28;45543;-94
2021/09/05 04:10:31;;;;;;;;;21.00;19.00;;;;;21.55;72.05;101340.50;5026399;28;44714;-91
2021/09/05 04:12:57;;;;;;;;;21.67;18.00;;;;;21.49;71.60;101322.75;5023190;28;45364;-93
2021/09/05 04:15:24;;;;;;;;;24.67;22.00;;;;;21.48;71.45;101329.03;5007873;28;45436;-92
2021/09/05 04:17:49;;;;;;;;;21.00;18.00;;;;;21.40;71.46;101321.16;5025997;28;45405;-92
2021/09/05 04:20:17;;;;;;;;;23.00;18.33;;;;;21.40;71.76;101321.16;5040345;28;44819;-93
2021/09/05 04:22:42;;;;;;;;;23.00;17.33;;;;;21.40;71.67;101313.16;5041559;28;44872;-92
2021/09/05 04:25:09;;;;;;;;;19.33;18.33;;;;;21.50;72.04;101339.69;5024510;28;45245;-95
2021/09/05 04:27:37;;;;;;;;;20.33;18.00;;;;;21.48;71.26;101339.75;5025041;28;45655;-95
2021/09/05 04:30:05;;;;;;;;;20.33;18.67;;;;;21.38;71.45;101316.75;5022551;28;44908;-91
2021/09/05 04:32:31;;;;;;;;;19.67;16.00;;;;;21.44;71.03;101326.44;5008700;28;45458;-93
2021/09/05 04:34:56;;;;;;;;;17.33;17.33;;;;;21.34;71.00;101326.59;5025082;28;44695;-93
2021/09/05 04:37:23;;;;;;;;;19.33;17.33;;;;;21.34;71.15;101326.59;5000433;28;46756;-92
2021/09/05 04:39:55;;;;;;;;;19.00;16.00;;;;;21.32;71.02;101330.25;5022638;28;45383;-90
2021/09/05 04:42:26;;;;;;;;;21.67;18.00;;;;;21.30;70.95;101335.59;5005355;28;45411;-90
2021/09/05 04:44:55;;;;;;;;;17.00;17.00;;;;;21.30;70.70;101340.94;5021704;28;45415;-90
2021/09/05 04:47:21;;;;;;;;;18.67;18.67;;;;;21.31;71.09;101348.06;5021843;28;46339;-91
2021/09/05 04:49:47;;;;;;;;;17.67;17.67;;;;;21.34;70.73;101355.16;4988942;28;45312;-90
2021/09/05 04:52:13;;;;;;;;;20.00;18.67;;;;;21.39;70.84;101362.19;5008705;28;45342;-92
2021/09/05 04:54:40;;;;;;;;;22.00;17.67;;;;;21.21;70.92;101341.13;5023083;28;45430;-91
2021/09/05 04:57:08;;;;;;;;;17.67;16.67;;;;;21.28;70.61;101357.00;5024126;28;45523;-95
2021/09/05 04:59:33;;;;;;;;;18.67;18.00;;;;;21.27;70.53;101362.41;5027489;28;45419;-91
2021/09/05 05:01:59;;;;;;;;;22.00;19.00;;;;;21.33;71.10;101380.13;5025350;28;45434;-95
2021/09/05 05:04:24;;;;;;;;;22.00;20.67;;;;;21.27;70.93;101376.66;5025343;28;45391;-92
2021/09/05 05:06:50;;;;;;;;;17.33;17.00;;;;;21.20;71.13;101360.72;5028267;28;45520;-93
2021/09/05 05:09:16;;;;;;;;;18.33;17.33;;;;;21.20;71.33;101360.72;5028837;28;45198;-94
2021/09/05 05:11:43;;;;;;;;;19.00;17.67;;;;;21.19;71.21;101364.31;5030027;28;44776;-92
2021/09/05 05:14:10;;;;;;;;;17.67;17.67;;;;;21.13;71.32;101360.84;5030001;28;45415;-92
2021/09/05 05:16:35;;;;;;;;;19.67;19.00;;;;;21.15;71.05;101369.72;5011655;28;47045;-91
2021/09/05 05:19:04;;;;;;;;;19.33;19.33;;;;;21.25;71.05;101397.19;5009953;28;45431;-95
2021/09/05 05:21:30;;;;;;;;;23.33;20.33;;;;;21.29;71.11;101400.69;5028174;28;45450;-91
2021/09/05 05:23:57;;;;;;;;;27.00;19.00;;;;;21.14;71.21;101378.66;5010697;28;45218;-94
2021/09/05 05:26:24;;;;;;;;;20.67;18.00;;;;;21.15;70.89;101383.06;5027842;28;45597;-91
2021/09/05 05:28:50;;;;;;;;;19.00;18.00;;;;;21.15;70.96;101388.41;5027567;28;45627;-91
2021/09/05 05:31:17;;;;;;;;;24.00;20.00;;;;;21.13;71.15;101382.22;5027742;28;45542;-94
2021/09/05 05:33:42;;;;;;;;;16.33;16.00;;;;;21.13;71.20;101390.25;5027140;28;44916;-92
2021/09/05 05:36:08;;;;;;;;;19.33;19.00;;;;;21.22;70.97;101405.25;5027272;28;46270;-92
2021/09/05 05:38:34;;;;;;;;;21.00;19.33;;;;;21.21;70.56;101399.94;4993554;28;45424;-92
2021/09/05 05:41:07;;;;;;;;;19.00;18.00;;;;;21.11;70.85;101384.03;5024453;28;45437;-94
2021/09/05 05:43:36;;;;;;;;;20.00;19.00;;;;;21.17;71.29;101399.97;5022029;28;45419;-94
2021/09/05 05:46:01;;;;;;;;;19.67;18.67;;;;;21.18;71.01;101398.19;5026894;28;47364;-95
2021/09/05 05:48:27;;;;;;;;;19.33;16.33;;;;;21.12;71.37;101383.16;5029462;28;45304;-96
2021/09/05 05:50:53;;;;;;;;;19.00;16.67;;;;;21.17;71.17;101394.63;5031926;28;45168;-92
2021/09/05 05:53:20;;;;;;;;;19.00;17.00;;;;;21.28;70.97;101413.16;5034384;28;44904;-91
2021/09/05 05:55:47;;;;;;;;;20.67;19.33;;;;;21.27;71.47;101413.19;5033466;28;45406;-92
2021/09/05 05:58:13;;;;;;;;;23.33;20.33;;;;;21.23;71.23;101403.47;5030771;28;45379;-93
2021/09/05 06:00:42;;;;;;;;;20.00;19.00;;;;;21.15;71.30;101393.78;4997505;28;45371;-94
2021/09/05 06:03:09;;;;;;;;;21.33;19.00;;;;;21.26;71.36;101408.75;5014784;28;45272;-94
2021/09/05 06:05:35;;;;;;;;;20.67;20.33;;;;;21.33;71.16;101418.44;5030410;28;46092;-93
2021/09/05 06:08:03;;;;;;;;;19.33;19.00;;;;;21.28;71.34;101412.28;5028210;28;45515;-94
2021/09/05 06:10:31;;;;;;;;;20.00;19.67;;;;;21.39;71.12;101428.16;5031212;28;45563;-95
2021/09/05 06:12:59;;;;;;;;;20.67;18.33;;;;;21.22;71.05;101399.00;5001138;28;45527;-92
2021/09/05 06:15:27;;;;;;;;;20.00;17.00;;;;;21.43;70.62;101439.69;5023830;28;48503;-91
2021/09/05 06:17:55;;;;;;;;;19.67;16.67;;;;;21.28;70.76;101404.25;5036033;28;45371;-92
2021/09/05 06:20:27;;;;;;;;;20.00;18.33;;;;;21.35;70.40;101421.97;5021787;28;44758;-91
2021/09/05 06:22:53;;;;;;;;;19.33;19.00;;;;;21.39;70.81;101425.47;5038770;28;45440;-91
2021/09/05 06:25:19;;;;;;;;;19.67;19.00;;;;;21.38;70.45;101429.06;5038797;28;46973;-91
2021/09/05 06:27:46;;;;;;;;;18.67;17.00;;;;;21.51;70.75;101452.00;5003412;28;45705;-94
2021/09/05 06:30:13;;;;;;;;;19.67;17.33;;;;;21.49;70.68;101447.63;5035274;28;44757;-93
2021/09/05 06:32:39;;;;;;;;;22.00;18.33;;;;;21.53;70.87;101465.38;5036082;28;45218;-94
2021/09/05 06:35:05;;;;;;;;;20.67;19.67;;;;;21.38;70.55;101429.94;5034972;28;47201;-91
2021/09/05 06:37:32;;;;;;;;;22.00;19.33;;;;;21.47;70.33;101449.44;5039465;28;45489;-90
2021/09/05 06:39:59;;;;;;;;;18.33;18.00;;;;;21.47;69.97;101446.75;5038903;28;44769;-91
2021/09/05 06:42:24;;;;;;;;;23.00;19.33;;;;;21.46;70.59;101447.66;5022273;28;45458;-92
2021/09/05 06:44:53;;;;;;;;;20.33;18.67;;;;;21.45;70.18;101443.22;5034301;28;46296;-92
2021/09/05 06:47:21;;;;;;;;;17.67;17.67;;;;;21.57;70.21;101461.75;5034210;28;45248;-94
2021/09/05 06:49:54;;;;;;;;;20.00;19.67;;;;;21.48;70.40;101448.50;5033108;28;44776;-94
2021/09/05 06:52:20;;;;;;;;;26.33;20.67;;;;;21.53;69.97;101454.69;5033797;28;45341;-93
2021/09/05 06:54:47;;;;;;;;;21.67;17.67;;;;;21.51;69.94;101456.50;5032287;28;48152;-95
2021/09/05 06:57:15;;;;;;;;;20.67;19.33;;;;;21.50;70.10;101455.59;5035348;28;45394;-94
2021/09/05 06:59:42;;;;;;;;;20.67;18.33;;;;;21.64;70.17;101479.44;5018537;28;45212;-94
2021/09/05 07:02:07;;;;;;;;;23.33;18.33;;;;;21.71;70.55;101490.91;5034047;28;45304;-94
2021/09/05 07:04:34;;;;;;;;;20.67;19.00;;;;;21.59;69.81;101469.72;5033118;28;45401;-91
2021/09/05 07:07:00;;;;;;;;;18.00;18.00;;;;;21.58;70.29;101466.16;5033847;28;45150;-92
2021/09/05 07:09:44;;;;;;;;;18.33;18.33;;;;;21.63;70.02;101472.34;5031502;28;45476;-92
2021/09/05 07:12:09;;;;;;;;;21.00;19.33;;;;;21.71;70.19;101479.31;5032084;28;44686;-90
2021/09/05 07:14:35;;;;;;;;;18.00;18.00;;;;;21.66;69.99;101467.84;5029868;28;45582;-91
2021/09/05 07:17:01;;;;;;;;;23.33;21.00;;;;;21.86;69.49;101502.28;4997227;28;45398;-91
2021/09/05 07:19:27;;;;;;;;;22.00;18.00;;;;;21.74;69.24;101476.63;4996039;28;45405;-95
2021/09/05 07:21:54;;;;;;;;;22.00;19.00;;;;;21.75;69.71;101478.34;5030132;28;44845;-96
2021/09/05 07:24:23;;;;;;;;;24.33;21.00;;;;;21.86;69.46;101489.81;5029270;28;45443;-95
2021/09/05 07:26:53;;;;;;;;;26.00;22.00;;;;;21.78;69.47;101475.66;5029722;28;45419;-95
2021/09/05 07:29:18;;;;;;;;;22.33;21.33;;;;;21.78;69.25;101472.09;5025742;28;45610;-92
2021/09/05 07:31:45;;;;;;;;;23.33;22.67;;;;;21.90;69.14;101495.09;5027338;28;45628;-93
2021/09/05 07:34:12;;;;;;;;;24.33;22.67;;;;;21.92;69.18;101501.28;4992425;28;47220;-96
2021/09/05 07:36:38;;;;;;;;;22.00;21.33;;;;;21.78;69.43;101477.44;5026484;28;45387;-93
2021/09/05 07:39:04;;;;;;;;;19.67;19.33;;;;;21.84;69.40;101491.63;5029410;28;44700;-91
2021/09/05 07:41:42;;;;;;;;;25.33;22.33;;;;;21.96;69.40;101511.03;5029740;28;45463;-90
2021/09/05 07:44:08;;;;;;;;;23.00;22.33;;;;;21.91;68.97;101502.22;5022693;28;47060;-89
2021/09/05 07:46:33;;;;;;;;;24.75;22.25;;;;;21.81;69.06;101486.28;5027920;28;44773;-82
2021/09/05 07:48:59;;;;;;;;;22.00;19.00;;;;;21.91;68.80;101512.91;5006047;28;45305;-80
2021/09/05 07:51:24;;;;;;;;;22.00;22.00;;;;;21.90;68.67;101517.38;5018542;28;45365;-80
2021/09/05 07:53:51;;;;;;;;;20.33;19.67;;;;;21.93;68.71;101520.03;5016620;28;46161;-80
2021/09/05 07:56:16;;;;;;;;;23.67;21.67;;;;;21.97;68.29;101523.53;5017248;28;45305;-80
2021/09/05 07:58:42;;;;;;;;;22.00;20.67;;;;;21.96;68.12;101525.31;5017229;28;45360;-81
2021/09/05 08:01:07;;;;;;;;;27.00;24.33;;;;;22.00;67.03;101539.50;5017856;28;45226;-80
2021/09/05 08:03:37;;;;;;;;;21.33;19.00;;;;;21.99;66.25;101535.09;5017140;28;45579;-81
2021/09/05 08:06:03;;;;;;;;;25.00;23.00;;;;;22.00;66.55;101538.66;5016895;28;45418;-81
2021/09/05 08:08:28;;;;;;;;;22.67;22.00;;;;;22.01;66.87;101537.72;5017507;28;45394;-81
2021/09/05 08:10:54;;;;;;;;;20.00;19.33;;;;;21.96;67.08;101535.13;5017526;28;45312;-80
2021/09/05 08:13:19;;;;;;;;;22.33;20.67;;;;;22.01;67.29;101538.63;5016939;28;45804;-80
2021/09/05 08:15:44;;;;;;;;;22.33;20.00;;;;;22.04;67.52;101551.06;5017203;28;45426;-81
2021/09/05 08:18:10;;;;;;;;;22.33;20.67;;;;;22.01;67.11;101546.66;5016968;28;45833;-80
2021/09/05 08:20:35;;;;;;;;;25.00;23.67;;;;;22.07;66.93;101551.88;5017303;28;45293;-81
2021/09/05 08:23:02;;;;;;;;;22.67;21.00;;;;;22.09;66.81;101547.38;5016517;28;46947;-81
2021/09/05 08:25:27;;;;;;;;;27.00;23.33;;;;;22.13;66.15;101547.31;5017027;28;45328;-80
2021/09/05 08:27:52;;;;;;;;;24.00;22.67;;;;;22.16;67.43;101549.94;5016632;28;45203;-80
2021/09/05 08:30:18;;;;;;;;;22.00;19.33;;;;;22.16;66.45;101555.31;5016932;28;45332;-79
2021/09/05 08:32:43;;;;;;;;;21.00;20.67;;;;;22.25;65.85;101559.63;5015749;28;45531;-80
2021/09/05 08:35:09;;;;;;;;;21.67;21.33;;;;;22.25;66.42;101549.75;5016732;28;45221;-80
2021/09/05 08:37:34;;;;;;;;;21.67;20.33;;;;;22.34;67.11;101556.75;5017305;28;45275;-81
2021/09/05 08:40:00;;;;;;;;;21.00;19.33;;;;;22.37;65.79;101558.50;5017695;28;45395;-84
2021/09/05 08:42:27;;;;;;;;;19.33;19.00;;;;;22.40;65.69;101553.94;5017275;28;46314;-87
2021/09/05 08:44:53;;;;;;;;;23.00;21.00;;;;;22.39;66.20;101551.31;5017431;28;45336;-82
2021/09/05 08:47:20;;;;;;;;;24.33;19.67;;;;;22.47;65.55;101553.81;5017512;28;45518;-84
2021/09/05 08:49:46;;;;;;;;;18.67;18.33;;;;;22.49;65.47;101560.94;5018645;28;45400;-81
2021/09/05 08:52:12;;;;;;;;;18.33;15.33;;;;;22.51;65.93;101558.22;5016199;28;46441;-82
2021/09/05 08:54:38;;;;;;;;;22.33;19.00;;;;;22.54;66.34;101556.38;5019669;28;45367;-78
2021/09/05 08:57:03;;;;;;;;;20.00;18.67;;;;;22.58;66.39;101562.56;5020414;28;45257;-81
2021/09/05 08:59:29;;;;;;;;;21.00;18.33;;;;;22.60;66.28;101555.38;5018126;28;45197;-82
2021/09/05 09:02:00;;;;;;;;;21.67;20.33;;;;;22.66;66.35;101567.78;5018318;28;46139;-85
2021/09/05 09:04:34;;;;;;;;;15.67;15.67;;;;;22.73;66.26;101557.81;5019212;28;45419;-89
2021/09/05 09:07:08;;;;;;;;;23.67;20.33;;;;;22.89;66.27;101566.41;5019780;28;45418;-85
2021/09/05 09:09:33;;;;;;;;;20.00;18.33;;;;;23.09;66.02;101565.09;5018141;28;45401;-84
2021/09/05 09:12:00;;;;;;;;;21.00;19.67;;;;;23.39;65.32;101569.81;5017322;28;46038;-83
2021/09/05 09:14:45;;;;;;;;;22.67;19.67;;;;;23.74;65.32;101568.09;5019003;28;45343;-86
2021/09/05 09:17:12;;;;;;;;;19.67;17.67;;;;;24.03;63.22;101571.84;5019228;28;45336;-82
2021/09/05 09:19:43;;;;;;;;;21.00;20.33;;;;;24.37;62.75;101572.78;5020868;28;45728;-85
2021/09/05 09:22:17;;;;;;;;;22.67;18.33;;;;;24.71;62.29;101573.63;5017768;28;45480;-76
2021/09/05 09:24:43;;;;;;;;;18.33;16.33;;;;;25.05;61.09;101571.78;5019367;28;45539;-80
2021/09/05 09:27:09;;;;;;;;;22.00;18.33;;;;;25.31;61.57;101563.81;5020374;28;45365;-85
2021/09/05 09:29:36;;;;;;;;;21.67;21.67;;;;;25.59;60.75;101562.94;5017452;28;45321;-84
2021/09/05 09:32:05;;;;;;;;;18.00;17.00;;;;;25.84;59.71;101547.78;5020766;28;46321;-87
2021/09/05 09:34:47;;;;;;;;;18.50;17.50;;;;;26.21;59.04;101561.78;5018039;28;45215;-87
2021/09/05 09:37:14;;;;;;;;;18.00;17.00;;;;;26.56;59.02;101574.94;5016476;28;45332;-86
2021/09/05 09:39:44;;;;;;;;;18.33;17.67;;;;;26.84;58.67;101571.22;5016132;28;45365;-86
2021/09/05 09:42:30;;;;;;;;;18.33;18.33;;;;;27.15;56.09;101570.06;5016650;28;46512;-85
2021/09/05 09:44:58;;;;;;;;;22.67;18.00;;;;;27.40;55.50;101562.78;5020512;28;45194;-86
2021/09/05 09:47:23;;;;;;;;;18.00;17.67;;;;;27.67;55.13;101570.66;5021212;28;45277;-86
2021/09/05 09:49:50;;;;;;;;;16.00;16.00;;;;;27.90;55.32;101563.44;5019059;28;45536;-87
2021/09/05 09:52:17;;;;;;;;;17.67;16.00;;;;;28.21;53.95;101570.22;5012741;28;47673;-86
2021/09/05 09:54:43;;;;;;;;;16.00;16.00;;;;;28.38;53.22;101563.19;5020265;28;45442;-86
2021/09/05 09:57:10;;;;;;;;;21.00;19.00;;;;;28.70;52.44;101576.19;5020778;28;45470;-85
2021/09/05 09:59:35;;;;;;;;;17.33;16.67;;;;;28.93;52.37;101571.53;5021012;28;45403;-85
2021/09/05 10:02:01;;;;;;;;;20.33;19.00;;;;;29.16;50.99;101577.69;5019641;28;46172;-86
2021/09/05 10:04:31;;;;;;;;;19.67;17.00;;;;;29.37;51.80;101580.31;5021532;28;45210;-86
2021/09/05 10:06:57;;;;;;;;;20.33;18.67;;;;;29.58;49.95;101572.06;5019396;28;45396;-85
2021/09/05 10:09:24;;;;;;;;;17.00;17.00;;;;;29.70;49.91;101562.44;5019557;28;45382;-85
2021/09/05 10:11:50;;;;;;;;;16.33;16.33;;;;;30.00;50.63;101574.50;5019143;28;46198;-85
2021/09/05 10:14:20;;;;;;;;;17.67;14.67;;;;;30.21;49.54;101569.78;5017592;28;45333;-84
2021/09/05 10:16:46;;;;;;;;;16.67;15.67;;;;;30.41;50.21;101573.31;5019341;28;45199;-86
2021/09/05 10:19:13;;;;;;;;;13.67;13.67;;;;;30.69;49.58;101571.78;5019648;28;45417;-84
2021/09/05 10:21:38;;;;;;;;;14.67;14.33;;;;;30.85;49.36;101557.38;5019649;28;46341;-84
2021/09/05 10:24:11;;;;;;;;;14.67;14.33;;;;;31.03;48.09;101560.91;5019517;28;45324;-85
2021/09/05 10:26:37;;;;;;;;;14.33;13.67;;;;;31.23;47.89;101567.03;5019751;28;45413;-84
2021/09/05 10:29:13;;;;;;;;;12.33;12.33;;;;;31.46;47.07;101562.09;5016610;28;45546;-85
2021/09/05 10:31:39;;;;;;;;;18.00;16.00;;;;;31.73;45.79;101564.16;5019305;28;46037;-85
2021/09/05 10:34:36;;;;;;;;;15.00;14.67;;;;;32.38;46.38;101569.38;5019345;28;45399;-86
2021/09/05 10:37:13;;;;;;;;;11.33;11.33;;;;;33.42;44.27;101569.16;5018929;28;45167;-85
2021/09/05 10:40:06;;;;;;;;;13.00;12.00;;;;;34.42;42.68;101575.13;5019338;28;45329;-84
2021/09/05 10:42:32;;;;;;;;;16.67;15.00;;;;;35.17;42.48;101558.84;5019346;28;46674;-86
2021/09/05 10:45:07;;;;;;;;;13.00;13.00;;;;;35.96;41.04;101567.50;5020625;28;45285;-85
2021/09/05 10:47:43;;;;;;;;;12.00;12.00;;;;;36.63;40.02;101557.75;5020666;28;45476;-84
2021/09/05 10:50:37;;;;;;;;;14.67;13.33;;;;;37.23;38.71;101567.53;5019379;28;45307;-84
2021/09/05 10:53:18;;;;;;;;;13.00;12.00;;;;;37.64;37.80;101568.63;5016912;28;45276;-87
2021/09/05 10:56:15;;;;;;;;;17.00;13.00;;;;;38.03;36.33;101571.78;5017870;28;45359;-86
2021/09/05 10:58:46;;;;;;;;;12.00;12.00;;;;;38.31;35.72;101559.25;5019507;28;45417;-85
2021/09/05 11:01:17;;;;;;;;;13.00;11.33;;;;;38.68;35.38;101560.56;5001502;28;45436;-85
2021/09/05 11:04:11;;;;;;;;;16.00;13.00;;;;;39.04;33.97;101561.97;5019202;28;46379;-85
2021/09/05 11:06:42;;;;;;;;;11.33;11.00;;;;;39.32;34.65;101556.66;5021177;28;45286;-87
2021/09/05 11:12:13;;;;;;;;;15.67;14.67;;;;;39.63;32.56;101563.88;5020895;28;45372;-85
2021/09/05 11:14:48;;;;;;;;;13.33;12.33;;;;;38.87;31.81;101569.88;5018010;28;47126;-85
2021/09/05 11:17:16;;;;;;;;;13.00;12.67;;;;;38.01;32.47;101558.22;5022122;28;45332;-85
2021/09/05 11:19:44;;;;;;;;;13.33;12.33;;;;;37.31;33.08;101554.88;5028185;28;45309;-86
2021/09/05 11:22:15;;;;;;;;;11.67;11.33;;;;;36.72;34.23;101535.13;5026631;28;45222;-86